createdAt,value
2022-10-31T00:01:12.214Z,13.71
2022-10-31T00:03:39.551Z,13.48
2022-10-31T00:06:08.639Z,13.38
2022-10-31T00:08:36.066Z,13.40
2022-10-31T00:11:03.928Z,13.40
2022-10-31T00:13:31.321Z,13.44
2022-10-31T00:15:58.723Z,13.49
2022-10-31T00:18:26.146Z,13.45
2022-10-31T00:21:00.410Z,13.62
2022-10-31T00:23:29.106Z,13.65
2022-10-31T00:26:01.390Z,13.61
2022-10-31T00:28:28.753Z,13.63
2022-10-31T00:30:56.122Z,13.63
2022-10-31T00:33:23.508Z,13.52
2022-10-31T00:35:51.579Z,13.58
2022-10-31T00:38:18.979Z,13.62
2022-10-31T00:40:47.771Z,13.50
2022-10-31T00:43:15.147Z,13.50
2022-10-31T00:45:43.062Z,13.35
2022-10-31T00:48:10.587Z,13.22
2022-10-31T00:50:38.523Z,12.91
2022-10-31T00:53:05.911Z,13.01
2022-10-31T00:55:36.474Z,12.83
2022-10-31T00:58:05.904Z,13.03
2022-10-31T01:00:33.774Z,13.22
2022-10-31T01:03:01.603Z,13.14
2022-10-31T01:05:29.399Z,13.15
2022-10-31T01:07:56.732Z,13.00
2022-10-31T01:10:24.734Z,13.06
2022-10-31T01:12:52.942Z,12.91
2022-10-31T01:15:25.095Z,12.93
2022-10-31T01:17:52.427Z,12.89
2022-10-31T01:20:19.928Z,12.97
2022-10-31T01:22:47.358Z,12.99
2022-10-31T01:25:14.680Z,13.01
2022-10-31T01:27:42.520Z,12.90
2022-10-31T01:30:10.749Z,13.03
2022-10-31T01:32:39.451Z,12.86
2022-10-31T01:35:07.402Z,12.95
2022-10-31T01:37:34.799Z,12.92
2022-10-31T01:40:02.136Z,12.85
2022-10-31T01:42:29.492Z,12.61
2022-10-31T01:45:01.468Z,12.49
2022-10-31T01:47:34.680Z,12.66
2022-10-31T01:50:07.222Z,12.73
2022-10-31T01:52:37.592Z,12.72
2022-10-31T01:55:08.719Z,12.73
2022-10-31T01:57:37.756Z,12.72
2022-10-31T02:00:09.642Z,12.59
2022-10-31T02:02:43.349Z,12.65
2022-10-31T02:05:15.008Z,12.48
2022-10-31T02:07:46.663Z,12.17
2022-10-31T02:10:14.252Z,11.97
2022-10-31T02:12:42.647Z,11.61
2022-10-31T02:15:11.538Z,11.53
2022-10-31T02:17:38.995Z,11.77
2022-10-31T02:20:14.155Z,11.96
2022-10-31T02:22:51.571Z,12.18
2022-10-31T02:25:36.877Z,12.20
2022-10-31T02:28:26.376Z,12.26
2022-10-31T02:31:15.365Z,12.20
2022-10-31T02:33:45.739Z,12.38
2022-10-31T02:36:18.787Z,12.56
2022-10-31T02:38:53.460Z,12.60
2022-10-31T02:41:37.116Z,12.87
2022-10-31T02:44:10.832Z,12.82
2022-10-31T02:46:45.264Z,12.86
2022-10-31T02:49:24.724Z,12.73
2022-10-31T02:51:53.435Z,12.88
2022-10-31T02:54:23.851Z,13.03
2022-10-31T02:56:56.938Z,12.99
2022-10-31T02:59:25.100Z,12.98
2022-10-31T03:02:10.802Z,12.92
2022-10-31T03:04:58.555Z,13.05
2022-10-31T03:07:32.386Z,13.24
2022-10-31T03:10:06.921Z,13.38
2022-10-31T03:12:43.232Z,13.41
2022-10-31T03:15:17.066Z,13.50
2022-10-31T03:17:51.787Z,13.65
2022-10-31T03:20:23.369Z,13.76
2022-10-31T03:22:50.756Z,13.74
2022-10-31T03:25:18.735Z,13.62
2022-10-31T03:27:46.411Z,13.70
2022-10-31T03:30:14.966Z,13.89
2022-10-31T03:32:58.120Z,13.77
2022-10-31T03:35:27.800Z,13.79
2022-10-31T03:37:56.762Z,14.04
2022-10-31T03:40:25.439Z,14.15
2022-10-31T03:42:56.485Z,14.20
2022-10-31T03:45:25.879Z,14.22
2022-10-31T03:47:55.640Z,14.06
2022-10-31T03:50:23.655Z,13.92
2022-10-31T03:52:56.990Z,13.84
2022-10-31T03:55:30.150Z,13.69
2022-10-31T03:58:01.008Z,13.42
2022-10-31T04:00:28.836Z,12.76
2022-10-31T04:03:00.711Z,13.02
2022-10-31T04:05:31.640Z,13.09
2022-10-31T04:08:03.162Z,12.95
2022-10-31T04:10:33.511Z,12.80
2022-10-31T04:13:04.314Z,12.76
2022-10-31T04:15:40.182Z,12.65
2022-10-31T04:18:09.062Z,12.11
2022-10-31T04:20:39.375Z,12.03
2022-10-31T04:23:08.927Z,12.29
2022-10-31T04:25:40.262Z,12.47
2022-10-31T04:28:07.699Z,12.46
2022-10-31T04:30:35.153Z,12.31
2022-10-31T04:33:02.881Z,12.17
2022-10-31T04:35:32.235Z,12.01
2022-10-31T04:37:59.596Z,11.87
2022-10-31T04:40:26.983Z,11.92
2022-10-31T04:43:13.344Z,11.99
2022-10-31T04:45:43.691Z,11.96
2022-10-31T04:48:11.683Z,11.81
2022-10-31T04:50:42.371Z,11.88
2022-10-31T04:53:09.891Z,11.81
2022-10-31T04:55:48.311Z,11.75
2022-10-31T04:58:21.461Z,11.38
2022-10-31T05:00:53.563Z,11.44
2022-10-31T05:03:21.278Z,11.48
2022-10-31T05:05:50.253Z,11.46
2022-10-31T05:08:17.671Z,11.41
2022-10-31T05:10:48.744Z,11.41
2022-10-31T05:13:16.575Z,11.26
2022-10-31T05:16:13.163Z,10.72
2022-10-31T05:18:59.343Z,10.76
2022-10-31T05:21:54.061Z,10.89
2022-10-31T05:24:22.658Z,11.11
2022-10-31T05:26:50.518Z,11.27
2022-10-31T05:29:18.487Z,11.43
2022-10-31T05:31:45.795Z,11.47
2022-10-31T05:34:31.204Z,11.56
2022-10-31T05:37:15.604Z,11.50
2022-10-31T05:39:42.946Z,11.55
2022-10-31T05:42:15.066Z,11.44
2022-10-31T05:44:42.863Z,11.46
2022-10-31T05:47:21.364Z,11.34
2022-10-31T05:50:24.876Z,11.37
2022-10-31T05:53:07.385Z,11.27
2022-10-31T05:55:39.523Z,11.24
2022-10-31T05:58:13.470Z,11.02
2022-10-31T06:00:45.464Z,10.66
2022-10-31T06:03:13.671Z,10.43
2022-10-31T06:05:50.754Z,10.44
2022-10-31T06:08:22.939Z,10.81
2022-10-31T06:10:51.012Z,10.96
2022-10-31T06:13:24.487Z,11.05
2022-10-31T06:15:59.498Z,11.12
2022-10-31T06:18:33.608Z,11.13
2022-10-31T06:21:07.850Z,10.99
2022-10-31T06:23:38.266Z,11.05
2022-10-31T06:26:26.627Z,10.85
2022-10-31T06:28:54.343Z,11.09
2022-10-31T06:31:37.818Z,11.19
2022-10-31T06:34:05.159Z,11.16
2022-10-31T06:36:33.276Z,10.86
2022-10-31T06:39:02.191Z,10.59
2022-10-31T06:41:29.622Z,10.81
2022-10-31T06:43:57.784Z,10.91
2022-10-31T06:47:03.371Z,10.96
2022-10-31T06:49:50.064Z,10.82
2022-10-31T06:52:21.168Z,10.83
2022-10-31T06:54:49.823Z,11.04
2022-10-31T06:57:17.133Z,11.20
2022-10-31T06:59:44.795Z,11.46
2022-10-31T07:02:35.217Z,11.67
2022-10-31T07:05:02.863Z,11.83
2022-10-31T07:07:30.271Z,11.96
2022-10-31T07:09:59.001Z,12.01
2022-10-31T07:12:42.791Z,12.18
2022-10-31T07:15:10.882Z,12.26
2022-10-31T07:17:38.499Z,12.27
2022-10-31T07:20:07.267Z,12.34
2022-10-31T07:22:35.598Z,12.47
2022-10-31T07:25:06.286Z,12.57
2022-10-31T07:28:00.136Z,12.67
2022-10-31T07:30:27.946Z,12.81
2022-10-31T07:32:57.244Z,13.01
2022-10-31T07:35:29.829Z,13.17
2022-10-31T07:37:59.471Z,13.25
2022-10-31T07:40:28.430Z,13.44
2022-10-31T07:42:56.711Z,13.56
2022-10-31T07:46:00.071Z,13.70
2022-10-31T07:48:50.336Z,13.79
2022-10-31T07:51:36.104Z,13.99
2022-10-31T07:54:27.188Z,14.32
2022-10-31T07:56:56.370Z,14.32
2022-10-31T07:59:24.174Z,14.25
2022-10-31T08:01:51.558Z,14.37
2022-10-31T08:04:37.474Z,14.52
2022-10-31T08:07:23.915Z,14.89
2022-10-31T08:09:58.031Z,14.74
2022-10-31T08:12:30.804Z,14.57
2022-10-31T08:14:58.571Z,14.71
2022-10-31T08:17:25.919Z,14.88
2022-10-31T08:19:56.391Z,15.14
2022-10-31T08:22:31.628Z,15.17
2022-10-31T08:24:59.967Z,15.17
2022-10-31T08:27:29.014Z,15.19
2022-10-31T08:30:00.819Z,15.12
2022-10-31T08:32:28.178Z,15.07
2022-10-31T08:34:59.371Z,15.39
2022-10-31T08:37:35.586Z,15.32
2022-10-31T08:40:05.053Z,15.29
2022-10-31T08:42:35.300Z,15.43
2022-10-31T08:45:04.776Z,15.64
2022-10-31T08:47:35.984Z,15.79
2022-10-31T08:50:03.447Z,15.88
2022-10-31T08:52:58.760Z,15.81
2022-10-31T08:55:18.379Z,15.85
2022-10-31T08:58:05.227Z,15.89
2022-10-31T09:00:42.557Z,15.97
2022-10-31T09:03:19.692Z,15.88
2022-10-31T09:05:47.525Z,15.96
2022-10-31T09:08:17.022Z,15.95
2022-10-31T09:10:47.783Z,15.94
2022-10-31T09:13:21.715Z,16.04
2022-10-31T09:15:51.621Z,16.16
2022-10-31T09:18:25.251Z,16.15
2022-10-31T09:20:59.756Z,16.28
2022-10-31T09:23:28.749Z,16.45
2022-10-31T09:25:56.152Z,16.44
2022-10-31T09:28:34.207Z,16.50
2022-10-31T09:31:08.859Z,16.59
2022-10-31T09:33:50.571Z,16.82
2022-10-31T09:36:36.727Z,16.73
2022-10-31T09:39:05.585Z,16.67
2022-10-31T09:41:56.135Z,16.70
2022-10-31T09:44:37.892Z,16.90
2022-10-31T09:47:12.670Z,16.93
2022-10-31T09:49:57.404Z,17.19
2022-10-31T09:52:28.185Z,17.41
2022-10-31T09:54:57.215Z,17.52
2022-10-31T09:57:35.379Z,17.49
2022-10-31T10:00:05.521Z,17.40
2022-10-31T10:02:50.468Z,17.55
2022-10-31T10:05:21.696Z,17.71
2022-10-31T10:07:59.341Z,17.79
2022-10-31T10:10:52.426Z,18.04
2022-10-31T10:13:53.783Z,18.21
2022-10-31T10:16:34.024Z,18.45
2022-10-31T10:19:15.402Z,18.57
2022-10-31T10:21:50.571Z,18.70
2022-10-31T10:24:33.729Z,18.77
2022-10-31T10:27:07.405Z,18.71
2022-10-31T10:29:38.154Z,18.72
2022-10-31T10:32:10.335Z,18.99
2022-10-31T10:34:42.416Z,19.11
2022-10-31T10:37:19.290Z,19.03
2022-10-31T10:39:50.124Z,19.14
2022-10-31T10:42:35.864Z,18.81
2022-10-31T10:45:34.168Z,18.85
2022-10-31T10:48:10.123Z,18.47
2022-10-31T10:50:43.817Z,18.47
2022-10-31T10:53:36.136Z,18.62
2022-10-31T10:56:13.436Z,18.85
2022-10-31T10:58:42.579Z,19.05
2022-10-31T11:03:41.390Z,19.05
2022-10-31T11:06:22.780Z,18.97
2022-10-31T11:08:50.767Z,19.17
2022-10-31T11:11:26.260Z,19.45
2022-10-31T11:13:59.455Z,19.39
2022-10-31T11:16:36.802Z,19.82
2022-10-31T11:19:09.694Z,19.44
2022-10-31T11:21:38.380Z,19.34
2022-10-31T11:24:09.809Z,19.26
2022-10-31T11:26:38.908Z,19.35
2022-10-31T11:29:07.295Z,19.57
2022-10-31T11:31:36.627Z,19.57
2022-10-31T11:34:06.695Z,19.58
2022-10-31T11:36:35.922Z,19.46
2022-10-31T11:39:07.295Z,19.88
2022-10-31T11:41:36.779Z,19.78
2022-10-31T11:44:06.689Z,19.47
2022-10-31T11:46:37.372Z,19.53
2022-10-31T11:49:08.235Z,19.61
2022-10-31T11:51:36.426Z,19.80
2022-10-31T11:54:05.959Z,19.80
2022-10-31T11:56:40.620Z,19.82
2022-10-31T11:59:17.804Z,19.88
2022-10-31T12:01:49.413Z,20.12
2022-10-31T12:04:19.219Z,20.18
2022-10-31T12:06:47.861Z,20.38
2022-10-31T12:09:22.382Z,20.31
2022-10-31T12:12:01.276Z,20.44
2022-10-31T12:14:34.579Z,20.24
2022-10-31T12:17:07.023Z,20.18
2022-10-31T12:19:38.422Z,20.20
2022-10-31T12:22:15.914Z,20.52
2022-10-31T12:25:04.603Z,20.34
2022-10-31T12:27:41.159Z,20.67
2022-10-31T12:30:19.857Z,20.65
2022-10-31T12:33:10.723Z,20.63
2022-10-31T12:35:43.105Z,20.67
2022-10-31T12:38:26.651Z,20.65
2022-10-31T12:41:07.391Z,20.57
2022-10-31T12:43:42.829Z,20.36
2022-10-31T12:46:15.744Z,20.53
2022-10-31T12:49:04.306Z,20.72
2022-10-31T12:51:40.120Z,20.71
2022-10-31T12:54:21.277Z,20.46
2022-10-31T12:56:56.194Z,20.34
2022-10-31T12:59:29.483Z,20.62
2022-10-31T13:02:01.732Z,20.62
2022-10-31T13:04:37.358Z,20.54
2022-10-31T13:07:08.711Z,20.76
2022-10-31T13:09:39.466Z,20.58
2022-10-31T13:12:10.980Z,20.58
2022-10-31T13:14:41.254Z,20.48
2022-10-31T13:17:08.794Z,20.34
2022-10-31T13:19:40.039Z,20.01
2022-10-31T13:22:10.757Z,20.21
2022-10-31T13:24:41.502Z,20.25
2022-10-31T13:27:16.121Z,20.35
2022-10-31T13:29:48.488Z,20.02
2022-10-31T13:32:15.871Z,20.42
2022-10-31T13:34:46.821Z,20.30
2022-10-31T13:37:18.667Z,20.23
2022-10-31T13:40:00.115Z,20.42
2022-10-31T13:42:40.049Z,20.28
2022-10-31T13:45:15.236Z,20.29
2022-10-31T13:47:43.321Z,20.32
2022-10-31T13:50:25.228Z,20.31
2022-10-31T13:52:52.701Z,20.54
2022-10-31T13:55:40.741Z,20.23
2022-10-31T13:58:23.403Z,20.27
2022-10-31T14:01:00.784Z,20.52
2022-10-31T14:03:49.738Z,20.37
2022-10-31T14:06:16.953Z,20.12
2022-10-31T14:08:51.288Z,19.93
2022-10-31T14:11:23.525Z,19.93
2022-10-31T14:13:52.608Z,19.64
2022-10-31T14:16:22.780Z,19.26
2022-10-31T14:18:53.047Z,19.22
2022-10-31T14:21:29.376Z,18.97
2022-10-31T14:23:57.728Z,18.97
2022-10-31T14:26:36.129Z,19.04
2022-10-31T14:29:27.004Z,19.07
2022-10-31T14:31:56.556Z,18.88
2022-10-31T14:34:26.192Z,18.85
2022-10-31T14:37:12.256Z,18.75
2022-10-31T14:39:44.386Z,18.59
2022-10-31T14:42:21.483Z,18.57
2022-10-31T14:45:12.895Z,18.57
2022-10-31T14:47:47.316Z,18.51
2022-10-31T14:50:25.191Z,18.48
2022-10-31T14:52:54.957Z,18.44
2022-10-31T14:55:23.052Z,18.20
2022-10-31T14:57:51.847Z,18.28
2022-10-31T15:00:22.352Z,17.98
2022-10-31T15:02:56.680Z,18.05
2022-10-31T15:05:27.823Z,17.89
2022-10-31T15:07:56.804Z,17.82
2022-10-31T15:10:26.369Z,17.87
2022-10-31T15:12:54.495Z,17.75
2022-10-31T15:15:24.801Z,17.68
2022-10-31T15:17:55.190Z,17.78
2022-10-31T15:20:24.879Z,17.69
2022-10-31T15:22:52.530Z,17.66
2022-10-31T15:25:22.195Z,17.46
2022-10-31T15:27:50.356Z,17.35
2022-10-31T15:30:20.133Z,17.31
2022-10-31T15:32:57.425Z,17.21
2022-10-31T15:35:28.728Z,17.14
2022-10-31T15:37:57.041Z,17.18
2022-10-31T15:40:26.023Z,17.12
2022-10-31T15:42:55.232Z,17.08
2022-10-31T15:45:26.143Z,17.11
2022-10-31T15:47:58.984Z,17.05
2022-10-31T15:50:31.975Z,17.09
2022-10-31T15:53:00.751Z,17.12
2022-10-31T15:55:30.212Z,17.12
2022-10-31T15:57:58.957Z,17.14
2022-10-31T16:00:28.961Z,17.02
2022-10-31T16:03:09.115Z,16.93
2022-10-31T16:05:38.815Z,16.99
2022-10-31T16:08:06.560Z,17.02
2022-10-31T16:10:35.859Z,16.91
2022-10-31T16:13:04.126Z,16.82
2022-10-31T16:15:32.526Z,16.80
2022-10-31T16:18:01.726Z,16.79
2022-10-31T16:20:32.936Z,16.73
2022-10-31T16:23:01.102Z,16.62
2022-10-31T16:25:30.859Z,16.61
2022-10-31T16:28:05.876Z,16.65
2022-10-31T16:30:42.773Z,16.67
2022-10-31T16:33:26.791Z,16.71
2022-10-31T16:36:04.189Z,16.64
2022-10-31T16:38:37.126Z,16.50
2022-10-31T16:41:04.531Z,16.58
2022-10-31T16:43:31.831Z,16.65
2022-10-31T16:45:59.163Z,16.60
2022-10-31T16:48:26.512Z,16.67
2022-10-31T16:50:55.228Z,16.62
2022-10-31T16:53:22.589Z,16.49
2022-10-31T16:55:53.579Z,16.55
2022-10-31T16:58:23.995Z,16.57
2022-10-31T17:00:51.696Z,16.48
2022-10-31T17:03:19.223Z,16.56
2022-10-31T17:05:46.556Z,16.54
2022-10-31T17:08:15.399Z,16.49
2022-10-31T17:10:44.280Z,16.36
2022-10-31T17:13:15.475Z,16.30
2022-10-31T17:15:45.099Z,16.42
2022-10-31T17:18:13.235Z,16.27
2022-10-31T17:20:40.869Z,16.26
2022-10-31T17:23:10.451Z,16.32
2022-10-31T17:25:42.056Z,16.17
2022-10-31T17:28:12.667Z,16.13
2022-10-31T17:30:40.637Z,16.34
2022-10-31T17:33:08.331Z,16.31
2022-10-31T17:35:38.831Z,16.24
2022-10-31T17:38:06.289Z,16.19
2022-10-31T17:40:33.748Z,16.09
2022-10-31T17:43:04.745Z,15.97
2022-10-31T17:45:32.210Z,15.73
2022-10-31T17:47:59.720Z,15.51
2022-10-31T17:50:27.841Z,15.35
2022-10-31T17:52:55.219Z,15.32
2022-10-31T17:55:22.674Z,15.36
2022-10-31T17:57:51.328Z,15.41
2022-10-31T18:00:23.891Z,15.24
2022-10-31T18:02:51.400Z,15.25
2022-10-31T18:05:19.191Z,15.21
2022-10-31T18:07:50.479Z,15.23
2022-10-31T18:10:17.924Z,15.11
2022-10-31T18:12:45.440Z,15.12
2022-10-31T18:15:12.927Z,15.10
2022-10-31T18:17:42.405Z,15.02
2022-10-31T18:20:11.417Z,14.99
2022-10-31T18:22:38.822Z,15.01
2022-10-31T18:25:07.158Z,14.90
2022-10-31T18:27:34.575Z,14.95
2022-10-31T18:30:01.934Z,14.80
2022-10-31T18:32:29.824Z,14.75
2022-10-31T18:34:58.475Z,14.81
2022-10-31T18:37:25.802Z,14.81
2022-10-31T18:39:53.174Z,14.81
2022-10-31T18:42:20.512Z,14.72
2022-10-31T18:44:47.916Z,14.76
2022-10-31T18:47:15.247Z,14.76
2022-10-31T18:49:42.590Z,14.81
2022-10-31T18:52:11.356Z,14.81
2022-10-31T18:54:38.686Z,14.85
2022-10-31T18:57:06.086Z,14.84
2022-10-31T18:59:33.478Z,14.98
2022-10-31T19:02:00.932Z,14.97
2022-10-31T19:04:28.426Z,14.99
2022-10-31T19:06:56.145Z,15.09
2022-10-31T19:09:25.630Z,15.09
2022-10-31T19:11:52.956Z,15.06
2022-10-31T19:14:20.434Z,15.07
2022-10-31T19:16:49.197Z,15.03
2022-10-31T19:19:19.741Z,14.99
2022-10-31T19:21:47.155Z,15.10
2022-10-31T19:24:14.730Z,15.17
2022-10-31T19:26:43.427Z,15.36
2022-10-31T19:29:11.125Z,15.41
2022-10-31T19:31:38.535Z,15.54
2022-10-31T19:34:06.239Z,15.51
2022-10-31T19:36:35.930Z,15.47
2022-10-31T19:39:03.356Z,15.46
2022-10-31T19:41:31.428Z,15.45
2022-10-31T19:44:01.499Z,15.41
2022-10-31T19:49:16.207Z,15.47
2022-10-31T19:51:43.517Z,15.45
2022-10-31T19:54:11.742Z,15.39
2022-10-31T19:56:39.216Z,15.42
2022-10-31T19:59:07.924Z,15.43
2022-10-31T20:01:35.483Z,15.35
2022-10-31T20:04:02.878Z,15.38
2022-10-31T20:06:32.347Z,15.37
2022-10-31T20:09:01.408Z,15.41
2022-10-31T20:11:29.352Z,15.39
2022-10-31T20:13:57.426Z,15.15
2022-10-31T20:16:26.820Z,14.97
2022-10-31T20:18:54.576Z,14.92
2022-10-31T20:21:23.606Z,14.93
2022-10-31T20:23:53.968Z,15.04
2022-10-31T20:26:21.895Z,14.92
2022-10-31T20:28:49.312Z,14.97
2022-10-31T20:31:19.025Z,15.06
2022-10-31T20:33:48.012Z,15.01
2022-10-31T20:36:19.303Z,14.97
2022-10-31T20:38:47.110Z,14.80
2022-10-31T20:41:14.995Z,14.59
2022-10-31T20:43:42.589Z,14.57
2022-10-31T20:46:12.604Z,14.27
2022-10-31T20:48:39.999Z,14.07
2022-10-31T20:51:12.574Z,13.96
2022-10-31T20:53:40.091Z,14.04
2022-10-31T20:56:09.244Z,13.93
2022-10-31T20:58:37.088Z,13.85
2022-10-31T21:01:05.330Z,13.61
2022-10-31T21:03:32.903Z,13.61
2022-10-31T21:06:01.994Z,13.71
2022-10-31T21:08:31.535Z,13.78
2022-10-31T21:10:59.229Z,13.90
2022-10-31T21:13:27.926Z,13.96
2022-10-31T21:16:00.259Z,14.08
2022-10-31T21:18:27.629Z,14.16
2022-10-31T21:20:57.724Z,14.16
2022-10-31T21:23:25.072Z,14.30
2022-10-31T21:25:53.704Z,14.40
2022-10-31T21:28:21.008Z,14.38
2022-10-31T21:30:51.511Z,14.38
2022-10-31T21:33:19.152Z,14.47
2022-10-31T21:35:51.113Z,14.23
2022-10-31T21:38:18.568Z,13.96
2022-10-31T21:40:46.051Z,14.02
2022-10-31T21:43:14.720Z,14.08
2022-10-31T21:45:43.144Z,14.13
2022-10-31T21:48:10.545Z,14.02
2022-10-31T21:50:37.933Z,13.94
2022-10-31T21:53:19.295Z,13.98
2022-10-31T21:55:46.636Z,13.90
2022-10-31T21:58:15.342Z,13.91
2022-10-31T22:00:42.797Z,13.98
2022-10-31T22:03:10.267Z,14.00
2022-10-31T22:05:37.642Z,13.92
2022-10-31T22:08:05.527Z,13.89
2022-10-31T22:10:32.843Z,13.68
2022-10-31T22:13:00.177Z,13.36
2022-10-31T22:15:28.839Z,13.08
2022-10-31T22:17:56.215Z,12.99
2022-10-31T22:20:26.128Z,13.08
2022-10-31T22:22:53.541Z,13.21
2022-10-31T22:25:20.860Z,13.28
2022-10-31T22:27:48.184Z,13.22
2022-10-31T22:30:15.596Z,13.22
2022-10-31T22:32:44.275Z,13.18
2022-10-31T22:35:11.808Z,13.24
2022-10-31T22:37:39.142Z,13.14
2022-10-31T22:40:07.832Z,13.07
2022-10-31T22:42:35.155Z,12.95
2022-10-31T22:45:03.631Z,12.90
2022-10-31T22:47:31.056Z,12.93
2022-10-31T22:49:59.799Z,13.01
2022-10-31T22:52:27.123Z,13.07
2022-10-31T22:54:58.352Z,13.12
2022-10-31T22:57:26.836Z,13.16
2022-10-31T22:59:54.508Z,13.10
2022-10-31T23:02:22.026Z,13.20
2022-10-31T23:04:49.404Z,13.21
2022-10-31T23:07:23.014Z,13.23
2022-10-31T23:09:51.662Z,13.20
2022-10-31T23:12:36.412Z,13.20
2022-10-31T23:15:03.997Z,13.12
2022-10-31T23:17:31.422Z,13.07
2022-10-31T23:19:58.758Z,13.12
2022-10-31T23:22:27.411Z,13.11
2022-10-31T23:24:54.761Z,13.00
2022-10-31T23:27:22.883Z,13.12
2022-10-31T23:29:51.771Z,13.17
2022-10-31T23:32:20.934Z,13.07
2022-10-31T23:34:49.173Z,12.94
2022-10-31T23:37:17.386Z,12.93
2022-10-31T23:39:46.079Z,12.97
2022-10-31T23:42:15.376Z,13.02
2022-10-31T23:44:42.955Z,13.00
2022-10-31T23:47:10.503Z,13.09
2022-10-31T23:49:37.899Z,13.04
2022-10-31T23:52:05.641Z,13.16
2022-10-31T23:54:33.211Z,13.14
2022-10-31T23:57:01.987Z,13.07
2022-10-31T23:59:29.851Z,13.15
